createdAt,value
2019-05-03T00:00:42.522Z,16.03
2019-05-03T00:03:13.161Z,15.90
2019-05-03T00:05:53.695Z,15.17
2019-05-03T00:08:22.982Z,15.70
2019-05-03T00:10:51.988Z,17.40
2019-05-03T00:13:21.868Z,22.10
2019-05-03T00:15:56.843Z,18.40
2019-05-03T00:18:25.918Z,23.47
2019-05-03T00:20:54.934Z,20.30
2019-05-03T00:23:24.214Z,21.40
2019-05-03T00:25:53.612Z,21.63
2019-05-03T00:28:22.457Z,20.37
2019-05-03T00:30:51.818Z,18.33
2019-05-03T00:33:22.498Z,19.50
2019-05-03T00:36:22.117Z,20.33
2019-05-03T00:38:52.512Z,28.93
2019-05-03T00:41:21.588Z,20.10
2019-05-03T00:43:51.865Z,17.80
2019-05-03T00:46:22.065Z,20.40
2019-05-03T00:48:52.434Z,17.93
2019-05-03T00:51:22.505Z,18.50
2019-05-03T00:53:53.095Z,19.90
2019-05-03T00:56:22.193Z,18.93
2019-05-03T00:58:58.303Z,16.63
2019-05-03T01:01:27.237Z,13.97
2019-05-03T01:03:56.467Z,15.87
2019-05-03T01:06:26.072Z,13.23
2019-05-03T01:08:54.996Z,16.07
2019-05-03T01:11:23.852Z,15.00
2019-05-03T01:13:52.696Z,21.53
2019-05-03T01:16:22.859Z,16.00
2019-05-03T01:18:52.302Z,21.40
2019-05-03T01:21:22.573Z,14.93
2019-05-03T01:23:52.524Z,15.77
2019-05-03T01:26:22.803Z,12.57
2019-05-03T01:28:52.284Z,14.23
2019-05-03T01:31:22.742Z,13.03
2019-05-03T01:33:52.183Z,13.47
2019-05-03T01:36:22.816Z,11.43
2019-05-03T01:38:53.004Z,14.83
2019-05-03T01:41:22.320Z,13.80
2019-05-03T01:43:52.680Z,14.17
2019-05-03T01:46:22.833Z,16.53
2019-05-03T01:49:17.242Z,14.70
2019-05-03T01:52:12.775Z,15.13
2019-05-03T01:54:42.688Z,13.70
2019-05-03T01:57:11.707Z,16.30
2019-05-03T01:59:42.448Z,18.40
2019-05-03T02:02:29.547Z,16.17
2019-05-03T02:05:16.545Z,14.10
2019-05-03T02:07:48.313Z,18.80
2019-05-03T02:10:16.147Z,19.23
2019-05-03T02:12:45.104Z,20.33
2019-05-03T02:15:14.101Z,15.40
2019-05-03T02:17:42.969Z,15.70
2019-05-03T02:20:12.649Z,15.07
2019-05-03T02:22:42.750Z,13.90
2019-05-03T02:25:12.415Z,13.70
2019-05-03T02:27:42.272Z,15.70
2019-05-03T02:30:14.194Z,14.93
2019-05-03T02:32:43.867Z,14.37
2019-05-03T02:35:14.190Z,15.47
2019-05-03T02:37:45.649Z,17.20
2019-05-03T02:40:15.241Z,13.57
2019-05-03T02:42:46.688Z,12.17
2019-05-03T02:45:25.712Z,15.17
2019-05-03T02:48:00.615Z,13.33
2019-05-03T02:50:29.867Z,12.80
2019-05-03T02:52:59.044Z,13.13
2019-05-03T02:55:27.882Z,10.60
2019-05-03T02:57:56.752Z,10.60
2019-05-03T03:00:49.175Z,10.20
2019-05-03T03:03:18.195Z,12.83
2019-05-03T03:05:48.189Z,10.60
2019-05-03T03:08:18.245Z,9.77
2019-05-03T03:10:47.926Z,7.00
2019-05-03T03:13:17.528Z,14.23
2019-05-03T03:15:47.509Z,7.50
2019-05-03T03:18:17.055Z,7.70
2019-05-03T03:20:47.709Z,8.43
2019-05-03T03:23:18.710Z,8.57
2019-05-03T03:25:49.462Z,9.43
2019-05-03T03:28:21.527Z,8.43
2019-05-03T03:31:18.664Z,7.40
2019-05-03T03:33:47.896Z,7.87
2019-05-03T03:36:50.275Z,7.10
2019-05-03T03:38:47.606Z,8.60
2019-05-03T03:41:17.213Z,6.53
2019-05-03T03:43:48.274Z,5.47
2019-05-03T03:46:17.759Z,5.50
2019-05-03T03:48:47.973Z,6.37
2019-05-03T03:51:20.284Z,4.77
2019-05-03T03:53:55.441Z,5.10
2019-05-03T03:56:25.570Z,5.00
2019-05-03T03:58:55.609Z,4.43
2019-05-03T04:01:26.793Z,4.40
2019-05-03T04:03:56.137Z,4.27
2019-05-03T04:06:40.529Z,4.30
2019-05-03T04:09:09.903Z,4.30
2019-05-03T04:11:38.887Z,4.67
2019-05-03T04:14:11.300Z,4.80
2019-05-03T04:17:05.850Z,4.10
2019-05-03T04:19:36.352Z,3.77
2019-05-03T04:22:06.054Z,5.60
2019-05-03T04:24:35.398Z,6.20
2019-05-03T04:27:18.784Z,8.13
2019-05-03T04:29:39.723Z,5.50
2019-05-03T04:32:10.045Z,6.13
2019-05-03T04:34:39.445Z,5.20
2019-05-03T04:37:08.431Z,6.83
2019-05-03T04:39:37.371Z,6.37
2019-05-03T04:42:06.907Z,4.27
2019-05-03T04:44:36.206Z,5.27
2019-05-03T04:47:06.753Z,5.10
2019-05-03T04:49:36.567Z,6.03
2019-05-03T04:52:06.228Z,5.67
2019-05-03T04:54:49.273Z,6.07
2019-05-03T04:57:35.092Z,4.80
2019-05-03T04:59:48.884Z,4.70
2019-05-03T05:02:18.179Z,4.40
2019-05-03T05:04:47.031Z,6.27
2019-05-03T05:07:16.276Z,4.67
2019-05-03T05:09:45.791Z,3.80
2019-05-03T05:12:16.099Z,4.77
2019-05-03T05:14:45.921Z,4.30
2019-05-03T05:17:17.685Z,5.27
2019-05-03T05:19:56.700Z,4.80
2019-05-03T05:22:29.177Z,5.60
2019-05-03T05:24:59.452Z,5.33
2019-05-03T05:27:49.450Z,4.87
2019-05-03T05:30:18.425Z,3.70
2019-05-03T05:32:47.337Z,3.60
2019-05-03T05:35:16.313Z,5.20
2019-05-03T05:37:45.238Z,4.10
2019-05-03T05:40:15.732Z,4.37
2019-05-03T05:42:45.399Z,3.93
2019-05-03T05:45:15.395Z,4.90
2019-05-03T05:47:50.262Z,4.43
2019-05-03T05:50:28.028Z,6.57
2019-05-03T05:52:56.976Z,4.47
2019-05-03T05:55:44.893Z,4.13
2019-05-03T05:58:30.608Z,6.03
2019-05-03T06:01:07.441Z,5.47
2019-05-03T06:03:36.278Z,4.50
2019-05-03T06:06:07.379Z,3.50
2019-05-03T06:09:05.100Z,7.27
2019-05-03T06:11:42.100Z,3.70
2019-05-03T06:14:30.761Z,4.47
2019-05-03T06:17:07.797Z,3.30
2019-05-03T06:19:47.101Z,4.10
2019-05-03T06:22:27.340Z,5.10
2019-05-03T06:25:01.391Z,4.10
2019-05-03T06:27:34.717Z,4.17
2019-05-03T06:30:18.081Z,3.63
2019-05-03T06:32:47.269Z,4.00
2019-05-03T06:35:16.177Z,3.53
2019-05-03T06:37:46.018Z,4.33
2019-05-03T06:40:15.144Z,4.67
2019-05-03T06:42:52.520Z,5.77
2019-05-03T06:45:15.455Z,5.20
2019-05-03T06:47:47.310Z,6.57
2019-05-03T06:50:19.523Z,6.60
2019-05-03T06:52:46.443Z,5.10
2019-05-03T06:55:15.438Z,5.00
2019-05-03T06:57:49.502Z,3.70
2019-05-03T07:00:42.764Z,4.77
2019-05-03T07:03:31.109Z,4.00
2019-05-03T07:06:40.368Z,4.10
2019-05-03T07:09:16.385Z,4.50
2019-05-03T07:11:45.286Z,4.33
2019-05-03T07:14:15.583Z,4.43
2019-05-03T07:16:44.920Z,4.50
2019-05-03T07:19:14.720Z,5.17
2019-05-03T07:21:44.691Z,4.80
2019-05-03T07:24:14.661Z,4.97
2019-05-03T07:26:44.799Z,5.87
2019-05-03T07:29:15.250Z,6.80
2019-05-03T07:31:44.725Z,7.80
2019-05-03T07:34:15.592Z,5.90
2019-05-03T07:36:44.751Z,6.27
2019-05-03T07:39:14.639Z,6.10
2019-05-03T07:41:44.646Z,9.43
2019-05-03T07:44:15.220Z,8.97
2019-05-03T07:46:45.183Z,7.87
2019-05-03T07:49:15.368Z,7.47
2019-05-03T07:51:44.895Z,11.50
2019-05-03T07:54:15.725Z,8.63
2019-05-03T07:56:54.898Z,15.20
2019-05-03T07:59:25.098Z,9.10
2019-05-03T08:01:56.433Z,11.57
2019-05-03T08:04:25.675Z,9.13
2019-05-03T08:06:55.118Z,9.07
2019-05-03T08:09:24.617Z,11.10
2019-05-03T08:11:54.698Z,10.87
2019-05-03T08:14:25.239Z,10.10
2019-05-03T08:16:54.875Z,12.70
2019-05-03T08:19:26.885Z,12.50
2019-05-03T08:21:56.681Z,12.90
2019-05-03T08:24:25.542Z,13.07
2019-05-03T08:26:55.766Z,11.70
2019-05-03T08:29:24.971Z,14.47
2019-05-03T08:32:05.022Z,15.10
2019-05-03T08:34:45.362Z,14.97
2019-05-03T08:37:17.152Z,15.03
2019-05-03T08:39:46.093Z,15.00
2019-05-03T08:42:25.980Z,12.73
2019-05-03T08:44:55.443Z,12.73
2019-05-03T08:47:24.893Z,12.67
2019-05-03T08:49:55.483Z,13.30
2019-05-03T08:52:24.865Z,13.43
2019-05-03T08:54:55.070Z,16.43
2019-05-03T08:57:25.361Z,15.67
2019-05-03T08:59:55.089Z,15.70
2019-05-03T09:02:25.853Z,26.13
2019-05-03T09:04:54.910Z,19.30
2019-05-03T09:07:25.286Z,14.73
2019-05-03T09:10:31.732Z,18.17
2019-05-03T09:13:07.862Z,15.77
2019-05-03T09:15:37.365Z,18.97
2019-05-03T09:18:06.962Z,18.20
2019-05-03T09:20:36.273Z,17.17
2019-05-03T09:23:05.787Z,19.17
2019-05-03T09:25:35.733Z,17.40
2019-05-03T09:28:05.689Z,18.17
2019-05-03T09:30:35.688Z,20.37
2019-05-03T09:33:08.627Z,20.83
2019-05-03T09:35:36.116Z,18.87
2019-05-03T09:38:05.830Z,20.77
2019-05-03T09:40:35.476Z,16.37
2019-05-03T09:43:04.756Z,17.63
2019-05-03T09:45:35.364Z,20.90
2019-05-03T09:48:05.650Z,19.40
2019-05-03T09:50:35.943Z,20.53
2019-05-03T09:53:05.643Z,15.77
2019-05-03T09:55:37.908Z,19.07
2019-05-03T09:58:06.752Z,17.33
2019-05-03T10:00:35.767Z,18.03
2019-05-03T10:03:05.588Z,23.50
2019-05-03T10:05:35.249Z,21.40
2019-05-03T10:08:05.096Z,18.50
2019-05-03T10:10:52.262Z,17.13
2019-05-03T10:13:23.628Z,17.07
2019-05-03T10:15:52.227Z,18.87
2019-05-03T10:18:21.577Z,14.23
2019-05-03T10:20:50.604Z,17.77
2019-05-03T10:23:54.816Z,17.80
2019-05-03T10:26:24.668Z,16.50
2019-05-03T10:28:55.305Z,17.20
2019-05-03T10:31:27.070Z,16.50
2019-05-03T10:34:05.587Z,17.77
2019-05-03T10:36:35.648Z,20.10
2019-05-03T10:39:06.366Z,16.33
2019-05-03T10:41:35.442Z,17.97
2019-05-03T10:44:06.023Z,18.80
2019-05-03T10:46:35.445Z,15.90
2019-05-03T10:49:05.732Z,16.50
2019-05-03T10:51:39.369Z,15.80
2019-05-03T10:54:08.360Z,18.13
2019-05-03T10:57:02.141Z,17.20
2019-05-03T10:59:31.842Z,17.53
2019-05-03T11:02:10.562Z,17.77
2019-05-03T11:04:39.481Z,19.20
2019-05-03T11:07:08.353Z,17.10
2019-05-03T11:09:48.713Z,17.70
2019-05-03T11:12:08.282Z,15.73
2019-05-03T11:14:37.208Z,16.80
2019-05-03T11:17:06.574Z,13.30
2019-05-03T11:19:35.811Z,15.90
2019-05-03T11:22:05.595Z,18.60
2019-05-03T11:24:35.004Z,19.17
2019-05-03T11:27:07.792Z,15.30
2019-05-03T11:29:36.717Z,15.20
2019-05-03T11:32:22.889Z,13.37
2019-05-03T11:35:08.129Z,16.50
2019-05-03T11:37:41.073Z,16.80
2019-05-03T11:40:10.177Z,15.20
2019-05-03T11:42:39.104Z,14.20
2019-05-03T11:45:09.017Z,15.67
2019-05-03T11:47:38.219Z,12.90
2019-05-03T11:50:07.412Z,10.33
2019-05-03T11:52:36.425Z,12.57
2019-05-03T11:55:11.493Z,15.30
2019-05-03T11:57:36.369Z,10.80
2019-05-03T12:00:06.950Z,10.37
2019-05-03T12:03:01.143Z,13.13
2019-05-03T12:05:30.757Z,14.13
2019-05-03T12:07:59.792Z,11.80
2019-05-03T12:10:46.107Z,12.53
2019-05-03T12:13:07.297Z,11.57
2019-05-03T12:15:36.312Z,13.87
2019-05-03T12:18:08.462Z,11.43
2019-05-03T12:20:39.287Z,12.30
2019-05-03T12:23:09.396Z,10.93
2019-05-03T12:25:39.843Z,11.60
2019-05-03T12:28:09.312Z,13.93
2019-05-03T12:30:38.258Z,14.00
2019-05-03T12:33:07.197Z,11.93
2019-05-03T12:35:36.527Z,9.50
2019-05-03T12:38:05.802Z,11.30
2019-05-03T12:40:35.117Z,9.40
2019-05-03T12:43:06.019Z,9.60
2019-05-03T12:45:35.723Z,12.07
2019-05-03T12:48:05.184Z,9.73
2019-05-03T12:50:34.921Z,10.37
2019-05-03T12:53:04.727Z,9.10
2019-05-03T12:55:35.617Z,26.50
2019-05-03T12:58:06.346Z,9.17
2019-05-03T13:01:02.217Z,10.43
2019-05-03T13:03:50.485Z,10.13
2019-05-03T13:06:19.332Z,8.70
2019-05-03T13:08:48.272Z,8.77
2019-05-03T13:11:17.210Z,9.17
2019-05-03T13:13:46.142Z,8.80
2019-05-03T13:16:18.515Z,8.30
2019-05-03T13:18:47.510Z,8.23
2019-05-03T13:21:16.447Z,8.07
2019-05-03T13:23:45.431Z,8.23
2019-05-03T13:26:14.981Z,8.67
2019-05-03T13:28:45.687Z,8.50
2019-05-03T13:31:16.154Z,7.80
2019-05-03T13:33:45.552Z,10.23
2019-05-03T13:36:15.175Z,11.10
2019-05-03T13:38:45.228Z,9.00
2019-05-03T13:41:14.492Z,10.30
2019-05-03T13:43:45.456Z,10.93
2019-05-03T13:46:15.669Z,42.60
2019-05-03T13:48:46.606Z,10.63
2019-05-03T13:51:15.399Z,10.30
2019-05-03T13:53:44.573Z,8.20
2019-05-03T13:56:15.292Z,8.37
2019-05-03T13:58:44.611Z,10.63
2019-05-03T14:01:14.709Z,8.60
2019-05-03T14:03:45.260Z,8.17
2019-05-03T14:06:14.477Z,9.30
2019-05-03T14:08:45.388Z,8.63
2019-05-03T14:11:15.536Z,12.67
2019-05-03T14:13:44.984Z,8.23
2019-05-03T14:16:14.412Z,7.70
2019-05-03T14:18:45.704Z,7.83
2019-05-03T14:21:24.495Z,7.60
2019-05-03T14:24:11.672Z,12.20
2019-05-03T14:26:41.718Z,7.70
2019-05-03T14:29:30.239Z,7.23
2019-05-03T14:31:59.647Z,5.13
2019-05-03T14:34:28.583Z,8.10
2019-05-03T14:36:57.525Z,6.10
2019-05-03T14:39:26.453Z,6.07
2019-05-03T14:41:55.673Z,6.47
2019-05-03T14:44:25.221Z,6.83
2019-05-03T14:46:56.649Z,4.77
2019-05-03T14:49:25.881Z,5.07
2019-05-03T14:51:56.727Z,6.43
2019-05-03T14:54:27.654Z,8.83
2019-05-03T14:57:16.835Z,5.93
2019-05-03T15:00:05.676Z,7.50
2019-05-03T15:02:44.478Z,5.87
2019-05-03T15:05:11.133Z,6.90
2019-05-03T15:07:40.297Z,7.03
2019-05-03T15:10:09.630Z,8.33
2019-05-03T15:12:38.658Z,6.57
2019-05-03T15:15:08.028Z,6.27
2019-05-03T15:17:36.997Z,11.40
2019-05-03T15:20:06.600Z,8.33
2019-05-03T15:22:35.826Z,6.70
2019-05-03T15:25:05.168Z,5.70
2019-05-03T15:27:35.391Z,7.50
2019-05-03T15:30:04.989Z,5.23
2019-05-03T15:32:35.364Z,5.73
2019-05-03T15:35:05.478Z,5.73
2019-05-03T15:37:35.784Z,5.30
2019-05-03T15:40:06.223Z,6.43
2019-05-03T15:42:37.284Z,5.53
2019-05-03T15:45:28.898Z,5.83
2019-05-03T15:48:10.210Z,7.30
2019-05-03T15:50:46.469Z,5.30
2019-05-03T15:53:15.347Z,6.07
2019-05-03T15:55:44.557Z,11.73
2019-05-03T15:58:15.262Z,6.47
2019-05-03T16:00:45.229Z,6.97
2019-05-03T16:03:14.526Z,5.80
2019-05-03T16:05:44.695Z,6.70
2019-05-03T16:08:15.433Z,7.10
2019-05-03T16:10:45.698Z,5.93
2019-05-03T16:13:14.786Z,6.27
2019-05-03T16:15:44.523Z,11.40
2019-05-03T16:18:14.844Z,6.30
2019-05-03T16:20:45.112Z,6.00
2019-05-03T16:23:15.564Z,6.03
2019-05-03T16:25:44.932Z,6.03
2019-05-03T16:28:42.378Z,5.60
2019-05-03T16:31:14.073Z,5.63
2019-05-03T16:33:45.509Z,5.63
2019-05-03T16:36:14.835Z,5.90
2019-05-03T16:38:44.899Z,5.17
2019-05-03T16:41:17.515Z,9.80
2019-05-03T16:43:45.532Z,6.17
2019-05-03T16:46:14.879Z,7.60
2019-05-03T16:48:44.861Z,8.33
2019-05-03T16:51:15.084Z,7.83
2019-05-03T16:53:45.397Z,6.93
2019-05-03T16:56:16.535Z,6.90
2019-05-03T16:58:45.108Z,15.97
2019-05-03T17:01:17.786Z,8.63
2019-05-03T17:03:54.807Z,7.37
2019-05-03T17:06:42.695Z,5.80
2019-05-03T17:09:31.013Z,6.63
2019-05-03T17:12:16.446Z,5.97
2019-05-03T17:14:45.757Z,7.37
2019-05-03T17:17:14.978Z,6.10
2019-05-03T17:19:44.702Z,6.77
2019-05-03T17:22:14.849Z,11.23
2019-05-03T17:24:44.528Z,6.00
2019-05-03T17:27:13.514Z,6.17
2019-05-03T17:29:44.472Z,6.80
2019-05-03T17:32:15.304Z,7.60
2019-05-03T17:34:45.358Z,5.57
2019-05-03T17:37:14.528Z,7.97
2019-05-03T17:40:01.899Z,5.10
2019-05-03T17:42:48.597Z,4.30
2019-05-03T17:45:21.617Z,4.27
2019-05-03T17:47:51.387Z,4.93
2019-05-03T17:50:20.327Z,5.50
2019-05-03T17:53:07.112Z,5.00
2019-05-03T17:55:45.510Z,5.40
2019-05-03T17:58:20.422Z,7.73
2019-05-03T18:01:02.584Z,15.33
2019-05-03T18:03:34.865Z,5.90
2019-05-03T18:06:11.083Z,6.73
2019-05-03T18:08:55.706Z,6.00
2019-05-03T18:11:28.717Z,7.80
2019-05-03T18:13:57.939Z,7.13
2019-05-03T18:16:26.768Z,7.30
2019-05-03T18:18:55.657Z,7.93
2019-05-03T18:21:24.798Z,11.07
2019-05-03T18:23:54.473Z,9.60
2019-05-03T18:26:24.939Z,7.27
2019-05-03T18:28:55.328Z,7.50
2019-05-03T18:31:25.131Z,8.73
2019-05-03T18:33:54.773Z,13.80
2019-05-03T18:36:25.303Z,9.80
2019-05-03T18:38:55.221Z,9.63
2019-05-03T18:41:25.407Z,10.67
2019-05-03T18:44:14.718Z,7.13
2019-05-03T18:47:05.496Z,11.10
2019-05-03T18:49:35.354Z,13.23
2019-05-03T18:52:04.543Z,9.83
2019-05-03T18:54:35.054Z,8.07
2019-05-03T18:57:05.103Z,7.00
2019-05-03T18:59:34.237Z,8.50
2019-05-03T19:02:05.437Z,11.87
2019-05-03T19:04:41.194Z,7.10
2019-05-03T19:07:22.457Z,9.80
2019-05-03T19:09:59.865Z,6.40
2019-05-03T19:12:52.061Z,6.17
2019-05-03T19:15:21.497Z,7.77
2019-05-03T19:18:00.713Z,6.20
2019-05-03T19:20:29.741Z,8.03
2019-05-03T19:22:58.733Z,9.80
2019-05-03T19:25:28.080Z,7.07
2019-05-03T19:27:57.011Z,7.30
2019-05-03T19:30:26.705Z,9.63
2019-05-03T19:32:55.633Z,7.40
2019-05-03T19:35:24.948Z,8.33
2019-05-03T19:37:55.585Z,6.00
2019-05-03T19:40:25.592Z,5.97
2019-05-03T19:42:55.234Z,7.47
2019-05-03T19:45:24.821Z,7.17
2019-05-03T19:47:55.214Z,6.57
2019-05-03T19:50:26.985Z,7.53
2019-05-03T19:53:06.089Z,5.93
2019-05-03T19:55:34.941Z,6.50
2019-05-03T19:58:05.454Z,6.60
2019-05-03T20:00:46.065Z,8.13
2019-05-03T20:03:19.155Z,5.80
2019-05-03T20:05:54.961Z,5.73
2019-05-03T20:08:36.878Z,5.37
2019-05-03T20:11:18.805Z,7.07
2019-05-03T20:13:47.645Z,8.73
2019-05-03T20:16:16.642Z,4.90
2019-05-03T20:18:45.859Z,5.37
2019-05-03T20:21:15.307Z,5.40
2019-05-03T20:23:47.026Z,7.53
2019-05-03T20:26:15.347Z,5.80
2019-05-03T20:28:44.947Z,6.30
2019-05-03T20:31:14.723Z,5.73
2019-05-03T20:33:45.724Z,7.73
2019-05-03T20:36:14.830Z,6.70
2019-05-03T20:38:44.514Z,7.13
2019-05-03T20:41:14.850Z,7.57
2019-05-03T20:44:06.760Z,8.73
2019-05-03T20:46:50.094Z,14.10
2019-05-03T20:49:19.273Z,5.07
2019-05-03T20:51:51.248Z,6.47
2019-05-03T20:54:19.639Z,5.83
2019-05-03T20:56:48.860Z,6.07
2019-05-03T20:59:17.721Z,7.00
2019-05-03T21:01:47.110Z,5.70
2019-05-03T21:04:15.981Z,7.97
2019-05-03T21:06:45.409Z,8.23
2019-05-03T21:09:15.065Z,6.03
2019-05-03T21:11:44.867Z,5.47
2019-05-03T21:14:15.552Z,6.47
2019-05-03T21:17:06.642Z,6.60
2019-05-03T21:19:50.060Z,6.27
2019-05-03T21:22:22.474Z,7.03
2019-05-03T21:24:56.693Z,6.47
2019-05-03T21:27:25.989Z,6.57
2019-05-03T21:29:55.372Z,5.60
2019-05-03T21:32:25.115Z,6.43
2019-05-03T21:34:55.714Z,6.47
2019-05-03T21:37:25.022Z,5.73
2019-05-03T21:39:54.826Z,9.20
2019-05-03T21:42:23.902Z,7.67
2019-05-03T21:44:52.806Z,9.50
2019-05-03T21:47:55.798Z,7.43
2019-05-03T21:50:25.176Z,6.40
2019-05-03T21:52:57.545Z,6.20
2019-05-03T21:55:26.908Z,6.97
2019-05-03T21:57:56.206Z,6.97
2019-05-03T22:00:27.362Z,9.20
2019-05-03T22:02:56.732Z,7.47
2019-05-03T22:05:26.459Z,7.13
2019-05-03T22:07:55.596Z,6.50
2019-05-03T22:10:25.531Z,6.67
2019-05-03T22:12:54.571Z,6.80
2019-05-03T22:15:32.175Z,8.80
2019-05-03T22:18:20.125Z,5.23
2019-05-03T22:20:57.737Z,5.90
2019-05-03T22:23:49.260Z,5.80
2019-05-03T22:26:20.053Z,7.90
2019-05-03T22:28:48.953Z,7.33
2019-05-03T22:31:17.884Z,6.80
2019-05-03T22:33:46.863Z,8.37
2019-05-03T22:36:16.235Z,7.63
2019-05-03T22:38:45.642Z,10.33
2019-05-03T22:41:14.850Z,6.47
2019-05-03T22:43:45.672Z,5.63
2019-05-03T22:46:14.977Z,7.67
2019-05-03T22:48:44.906Z,7.40
2019-05-03T22:51:15.160Z,6.80
2019-05-03T22:53:44.866Z,7.63
2019-05-03T22:56:14.514Z,6.50
2019-05-03T22:58:45.639Z,6.83
2019-05-03T23:01:16.639Z,8.17
2019-05-03T23:03:46.140Z,11.70
2019-05-03T23:06:34.332Z,6.53
2019-05-03T23:09:05.296Z,9.37
2019-05-03T23:11:35.335Z,6.50
2019-05-03T23:14:05.203Z,6.80
2019-05-03T23:16:35.614Z,8.03
2019-05-03T23:19:05.652Z,7.37
2019-05-03T23:21:54.477Z,6.60
2019-05-03T23:24:24.705Z,6.53
2019-05-03T23:26:53.672Z,8.00
2019-05-03T23:29:22.666Z,8.17
2019-05-03T23:31:51.945Z,8.73
2019-05-03T23:34:21.145Z,8.10
2019-05-03T23:36:50.342Z,6.47
2019-05-03T23:39:19.196Z,8.20
2019-05-03T23:41:48.104Z,11.00
2019-05-03T23:44:16.972Z,7.93
2019-05-03T23:46:56.248Z,6.63
2019-05-03T23:49:25.244Z,9.23
2019-05-03T23:51:56.522Z,7.43
2019-05-03T23:54:25.527Z,7.83
2019-05-03T23:56:54.757Z,7.97
2019-05-03T23:59:24.306Z,8.07
